createdAt,value
2022-12-31T09:30:38.834Z,101113.81
2022-12-31T09:33:09.017Z,101112.75
2022-12-31T09:35:38.259Z,101113.75
2022-12-31T09:38:11.406Z,101096.38
2022-12-31T09:41:21.682Z,101106.94
2022-12-31T09:44:19.471Z,101097.84
2022-12-31T09:47:15.795Z,101104.25
2022-12-31T09:50:18.116Z,101090.38
2022-12-31T09:52:57.455Z,101091.34
2022-12-31T09:55:31.297Z,101085.28
2022-12-31T09:58:04.019Z,101085.88
2022-12-31T10:00:35.468Z,101079.75
2022-12-31T10:03:24.991Z,101088.25
2022-12-31T10:05:59.059Z,101084.91
2022-12-31T10:08:35.357Z,101085.84
2022-12-31T10:11:06.450Z,101080.59
2022-12-31T10:13:41.153Z,101071.97
2022-12-31T10:16:24.535Z,101077.03
2022-12-31T10:19:15.096Z,101068.06
2022-12-31T10:21:49.283Z,101064.75
2022-12-31T10:24:44.645Z,101065.50
2022-12-31T10:27:19.598Z,101066.25
2022-12-31T10:29:48.449Z,101062.66
2022-12-31T10:32:24.969Z,101062.34
2022-12-31T10:35:02.046Z,101063.81
2022-12-31T10:37:30.770Z,101055.09
2022-12-31T10:40:06.005Z,101046.50
2022-12-31T10:43:18.489Z,101045.41
2022-12-31T10:46:17.640Z,101043.75
2022-12-31T10:49:32.659Z,101041.66
2022-12-31T10:52:51.318Z,101043.91
2022-12-31T10:55:54.675Z,101036.53
2022-12-31T10:58:59.324Z,101032.03
2022-12-31T11:01:33.011Z,101033.72
2022-12-31T11:04:37.503Z,101034.97
2022-12-31T11:07:22.570Z,101038.00
2022-12-31T11:10:22.526Z,101017.38
2022-12-31T11:13:40.903Z,101035.50
2022-12-31T11:16:21.507Z,101027.84
2022-12-31T11:18:53.115Z,101018.03
2022-12-31T11:21:28.482Z,101021.28
2022-12-31T11:23:59.603Z,101018.38
2022-12-31T11:26:33.332Z,101015.22
2022-12-31T11:29:06.103Z,101015.75
2022-12-31T11:31:41.803Z,101013.06
2022-12-31T11:34:16.909Z,101007.66
2022-12-31T11:36:48.298Z,101005.72
2022-12-31T11:39:31.146Z,101010.09
2022-12-31T11:42:04.784Z,100995.66
2022-12-31T11:44:37.404Z,100995.25
2022-12-31T11:47:13.675Z,101000.38
2022-12-31T11:49:49.079Z,100995.06
2022-12-31T11:52:46.141Z,100992.75
2022-12-31T11:55:24.406Z,100998.19
2022-12-31T11:57:52.927Z,100997.53
2022-12-31T12:00:21.857Z,100997.91
2022-12-31T12:02:51.836Z,101002.25
2022-12-31T12:05:23.790Z,101000.09
2022-12-31T12:07:51.822Z,100980.44
2022-12-31T12:10:31.979Z,101006.97
2022-12-31T12:13:12.155Z,101000.31
2022-12-31T12:15:48.741Z,100992.59
2022-12-31T12:18:29.688Z,100991.34
2022-12-31T12:21:09.621Z,100984.75
2022-12-31T12:23:37.644Z,100987.31
2022-12-31T12:26:05.756Z,100992.94
2022-12-31T12:28:44.450Z,100995.34
2022-12-31T12:31:20.398Z,100990.81
2022-12-31T12:33:49.935Z,100988.47
2022-12-31T12:36:20.069Z,100992.53
2022-12-31T12:38:48.034Z,100991.22
2022-12-31T12:41:21.465Z,100996.47
2022-12-31T12:43:49.443Z,100993.97
2022-12-31T12:46:21.677Z,100990.88
2022-12-31T12:48:54.879Z,100994.28
2022-12-31T12:51:29.251Z,100991.59
2022-12-31T12:53:59.788Z,100991.59
2022-12-31T12:56:32.548Z,101001.44
2022-12-31T12:59:19.543Z,100999.03
2022-12-31T13:01:49.056Z,101009.84
2022-12-31T13:04:35.393Z,101004.13
2022-12-31T13:07:11.350Z,101015.59
2022-12-31T13:09:49.679Z,101019.69
2022-12-31T13:12:20.764Z,101011.44
2022-12-31T13:14:52.049Z,101019.38
2022-12-31T13:17:53.301Z,101028.50
2022-12-31T13:20:28.407Z,101020.41
2022-12-31T13:22:58.921Z,101034.09
2022-12-31T13:25:29.702Z,101029.22
2022-12-31T13:27:59.758Z,101026.00
2022-12-31T13:30:31.425Z,101039.34
2022-12-31T13:33:01.648Z,101030.91
2022-12-31T13:35:31.857Z,101044.41
2022-12-31T13:38:05.664Z,101046.47
2022-12-31T13:40:39.614Z,101053.53
2022-12-31T13:43:09.255Z,101057.63
2022-12-31T13:45:40.173Z,101054.25
2022-12-31T13:48:09.470Z,101058.97
2022-12-31T13:50:40.571Z,101039.03
2022-12-31T13:53:13.697Z,101061.66
2022-12-31T13:55:42.738Z,101068.59
2022-12-31T13:58:12.939Z,101062.00
2022-12-31T14:00:42.395Z,101059.97
2022-12-31T14:03:12.117Z,101067.69
2022-12-31T14:05:43.170Z,101072.78
2022-12-31T14:08:11.085Z,101072.50
2022-12-31T14:10:46.254Z,101070.59
2022-12-31T14:13:36.318Z,101077.69
2022-12-31T14:16:10.026Z,101065.47
2022-12-31T14:18:41.091Z,101059.00
2022-12-31T14:21:12.240Z,101063.59
2022-12-31T14:23:43.119Z,101062.75
2022-12-31T14:26:13.640Z,101063.00
2022-12-31T14:28:47.006Z,101067.00
2022-12-31T14:31:18.976Z,101068.06
2022-12-31T14:33:50.005Z,101069.56
2022-12-31T14:36:34.370Z,101064.69
2022-12-31T14:39:09.326Z,101064.63
2022-12-31T14:41:45.695Z,101069.47
2022-12-31T14:44:21.391Z,101070.03
2022-12-31T14:46:58.207Z,101072.00
2022-12-31T14:49:33.947Z,101062.59
2022-12-31T14:52:17.797Z,101068.97
2022-12-31T14:54:45.771Z,101060.00
2022-12-31T14:57:23.263Z,101057.97
2022-12-31T14:59:53.672Z,101037.34
2022-12-31T15:02:27.256Z,101060.13
2022-12-31T15:05:05.024Z,101048.94
2022-12-31T15:07:37.257Z,101041.75
2022-12-31T15:10:11.652Z,101050.25
2022-12-31T15:12:58.086Z,101058.50
2022-12-31T15:15:52.532Z,101067.84
2022-12-31T15:18:29.323Z,101073.47
2022-12-31T15:21:10.534Z,101073.94
2022-12-31T15:23:40.279Z,101066.00
2022-12-31T15:26:08.533Z,101069.78
2022-12-31T15:28:37.049Z,101077.41
2022-12-31T15:31:07.959Z,101084.47
2022-12-31T15:33:39.673Z,101074.84
2022-12-31T15:36:18.074Z,101082.16
2022-12-31T15:38:47.434Z,101079.44
2022-12-31T15:41:17.523Z,101088.31
2022-12-31T15:43:46.675Z,101086.91
2022-12-31T15:46:17.840Z,101098.47
2022-12-31T15:48:51.671Z,101098.81
2022-12-31T15:51:22.781Z,101103.53
2022-12-31T15:53:53.319Z,101103.31
2022-12-31T15:56:23.562Z,101105.50
2022-12-31T15:58:51.569Z,101114.81
2022-12-31T16:01:22.268Z,101113.41
2022-12-31T16:03:52.055Z,101116.34
2022-12-31T16:06:20.004Z,101115.59
2022-12-31T16:08:49.064Z,101107.66
2022-12-31T16:11:18.404Z,101115.22
2022-12-31T16:13:47.944Z,101112.00
2022-12-31T16:16:23.108Z,101106.22
2022-12-31T16:18:51.326Z,101113.81
2022-12-31T16:21:27.199Z,101113.06
2022-12-31T16:23:55.813Z,101113.31
2022-12-31T16:26:25.543Z,101117.38
2022-12-31T16:28:55.216Z,101113.97
2022-12-31T16:31:23.256Z,101115.31
2022-12-31T16:33:51.224Z,101120.50
2022-12-31T16:36:21.262Z,101112.13
2022-12-31T16:38:49.199Z,101108.38
2022-12-31T16:41:18.575Z,101123.91
2022-12-31T16:43:48.464Z,101120.50
2022-12-31T16:46:19.004Z,101123.91
2022-12-31T16:48:48.525Z,101120.13
2022-12-31T16:51:18.974Z,101119.53
2022-12-31T16:53:47.187Z,101117.13
2022-12-31T16:56:20.963Z,101117.13
2022-12-31T16:58:50.259Z,101115.69
2022-12-31T17:01:19.283Z,101117.16
2022-12-31T17:03:50.988Z,101123.72
2022-12-31T17:06:19.431Z,101103.84
2022-12-31T17:08:49.028Z,101102.13
2022-12-31T17:11:29.385Z,101129.50
2022-12-31T17:13:59.893Z,101123.63
2022-12-31T17:16:27.918Z,101132.63
2022-12-31T17:18:55.910Z,101126.69
2022-12-31T17:21:24.837Z,101130.59
2022-12-31T17:23:55.005Z,101137.88
2022-12-31T17:26:27.110Z,101136.69
2022-12-31T17:28:55.451Z,101128.94
2022-12-31T17:31:34.592Z,101141.91
2022-12-31T17:34:07.777Z,101152.84
2022-12-31T17:36:35.800Z,101151.03
2022-12-31T17:39:16.686Z,101150.78
2022-12-31T17:41:45.717Z,101150.91
2022-12-31T17:44:16.618Z,101148.84
2022-12-31T17:46:45.995Z,101155.63
2022-12-31T17:49:14.233Z,101153.44
2022-12-31T17:51:47.360Z,101160.22
2022-12-31T17:54:15.818Z,101154.88
2022-12-31T17:56:43.759Z,101161.69
2022-12-31T17:59:12.209Z,101157.19
2022-12-31T18:01:40.392Z,101155.59
2022-12-31T18:04:12.531Z,101161.69
2022-12-31T18:06:40.468Z,101147.34
2022-12-31T18:09:08.458Z,101155.84
2022-12-31T18:11:36.896Z,101158.06
2022-12-31T18:14:04.977Z,101153.19
2022-12-31T18:16:32.940Z,101158.53
2022-12-31T18:19:01.436Z,101163.63
2022-12-31T18:21:32.621Z,101167.41
2022-12-31T18:26:27.608Z,101176.28
2022-12-31T18:28:55.641Z,101177.97
2022-12-31T18:31:24.581Z,101178.16
2022-12-31T18:33:52.951Z,101178.16
2022-12-31T18:36:21.197Z,101196.00
2022-12-31T18:38:50.631Z,101195.41
2022-12-31T18:41:19.954Z,101187.38
2022-12-31T18:43:48.152Z,101193.34
2022-12-31T18:46:17.066Z,101195.50
2022-12-31T18:48:45.116Z,101192.59
2022-12-31T18:51:14.457Z,101198.06
2022-12-31T18:53:42.460Z,101194.66
2022-12-31T18:56:13.328Z,101186.75
2022-12-31T18:58:41.377Z,101192.59
2022-12-31T19:01:17.050Z,101185.75
2022-12-31T19:03:45.116Z,101180.13
2022-12-31T19:06:13.076Z,101183.81
2022-12-31T19:08:41.042Z,101174.03
2022-12-31T19:11:10.325Z,101192.06
2022-12-31T19:13:39.648Z,101193.50
2022-12-31T19:16:08.429Z,101184.25
2022-12-31T19:18:36.422Z,101189.72
2022-12-31T19:21:04.912Z,101184.25
2022-12-31T19:23:32.881Z,101186.91
2022-12-31T19:26:00.855Z,101180.59
2022-12-31T19:28:28.869Z,101170.38
2022-12-31T19:30:58.277Z,101170.28
2022-12-31T19:33:26.231Z,101168.97
2022-12-31T19:35:54.228Z,101166.06
2022-12-31T19:38:22.967Z,101163.19
2022-12-31T19:40:50.979Z,101171.44
2022-12-31T19:43:20.677Z,101160.22
2022-12-31T19:45:48.802Z,101169.00
2022-12-31T19:48:21.203Z,101144.69
2022-12-31T19:50:50.381Z,101171.44
2022-12-31T19:53:19.088Z,101174.84
2022-12-31T19:55:47.022Z,101186.28
2022-12-31T19:58:16.756Z,101186.28
2022-12-31T20:00:51.236Z,101191.41
2022-12-31T20:03:24.180Z,101196.00
2022-12-31T20:05:52.182Z,101200.75
2022-12-31T20:08:22.990Z,101201.34
2022-12-31T20:10:51.001Z,101196.56
2022-12-31T20:13:18.964Z,101204.69
2022-12-31T20:15:47.884Z,101200.09
2022-12-31T20:18:21.003Z,101198.09
2022-12-31T20:20:55.625Z,101195.78
2022-12-31T20:23:24.079Z,101191.03
2022-12-31T20:25:58.296Z,101199.50
2022-12-31T20:28:26.232Z,101191.00
2022-12-31T20:30:54.268Z,101182.94
2022-12-31T20:33:22.526Z,101188.81
2022-12-31T20:35:52.062Z,101186.38
2022-12-31T20:38:19.951Z,101179.09
2022-12-31T20:40:47.878Z,101181.03
2022-12-31T20:43:15.835Z,101180.28
2022-12-31T20:45:44.832Z,101173.56
2022-12-31T20:48:12.893Z,101183.63
2022-12-31T20:50:40.849Z,101178.28
2022-12-31T20:53:10.201Z,101187.50
2022-12-31T20:55:38.945Z,101191.13
2022-12-31T20:58:06.902Z,101162.63
2022-12-31T21:00:34.820Z,101184.09
2022-12-31T21:03:10.784Z,101193.28
2022-12-31T21:05:51.032Z,101196.84
2022-12-31T21:08:20.566Z,101201.88
2022-12-31T21:10:48.739Z,101216.00
2022-12-31T21:13:15.705Z,101206.75
2022-12-31T21:15:43.653Z,101210.00
2022-12-31T21:18:11.573Z,101207.78
2022-12-31T21:20:39.503Z,101214.50
2022-12-31T21:23:07.447Z,101210.47
2022-12-31T21:25:36.752Z,101209.31
2022-12-31T21:28:04.758Z,101209.09
2022-12-31T21:30:32.740Z,101212.28
2022-12-31T21:33:00.683Z,101215.03
2022-12-31T21:35:43.405Z,101216.09
2022-12-31T21:38:13.429Z,101222.63
2022-12-31T21:40:44.837Z,101232.53
2022-12-31T21:43:12.830Z,101222.31
2022-12-31T21:45:40.843Z,101219.13
2022-12-31T21:48:21.447Z,101223.72
2022-12-31T21:50:49.963Z,101230.00
2022-12-31T21:53:23.907Z,101229.81
2022-12-31T21:56:11.242Z,101234.91
2022-12-31T21:58:39.824Z,101199.09
2022-12-31T22:01:25.403Z,101235.31
2022-12-31T22:03:53.539Z,101230.00
2022-12-31T22:06:22.069Z,101230.22
2022-12-31T22:08:50.879Z,101229.47
2022-12-31T22:11:21.454Z,101225.94
2022-12-31T22:13:49.377Z,101232.22
2022-12-31T22:16:18.508Z,101219.66
2022-12-31T22:18:46.527Z,101220.22
2022-12-31T22:21:19.571Z,101222.63
2022-12-31T22:23:48.420Z,101216.38
2022-12-31T22:26:17.041Z,101220.19
2022-12-31T22:28:46.622Z,101215.72
2022-12-31T22:31:14.986Z,101220.84
2022-12-31T22:33:43.194Z,101230.88
2022-12-31T22:36:12.742Z,101218.38
2022-12-31T22:38:40.744Z,101217.97
2022-12-31T22:41:09.531Z,101218.94
2022-12-31T22:43:38.890Z,101210.00
2022-12-31T22:46:09.402Z,101213.16
2022-12-31T22:48:37.541Z,101212.09
2022-12-31T22:51:05.879Z,101208.28
2022-12-31T22:53:33.969Z,101204.88
2022-12-31T22:56:01.976Z,101207.97
2022-12-31T22:58:29.996Z,101209.75
2022-12-31T23:00:57.947Z,101187.16
2022-12-31T23:03:27.374Z,101188.03
2022-12-31T23:05:55.356Z,101190.47
2022-12-31T23:08:24.189Z,101192.50
2022-12-31T23:11:01.258Z,101195.50
2022-12-31T23:13:50.603Z,101198.34
2022-12-31T23:16:36.980Z,101205.06
2022-12-31T23:19:23.896Z,101198.47
2022-12-31T23:22:09.390Z,101200.81
2022-12-31T23:24:37.408Z,101203.84
2022-12-31T23:27:05.367Z,101199.28
2022-12-31T23:29:33.313Z,101205.47
2022-12-31T23:32:01.313Z,101194.91
2022-12-31T23:34:30.679Z,101202.72
2022-12-31T23:36:58.663Z,101204.41
2022-12-31T23:39:26.648Z,101201.09
2022-12-31T23:41:54.608Z,101209.38
2022-12-31T23:44:22.552Z,101208.19
2022-12-31T23:46:50.758Z,101206.63
2022-12-31T23:49:18.774Z,101208.63
2022-12-31T23:51:48.079Z,101208.19
2022-12-31T23:54:16.036Z,101211.34
2022-12-31T23:56:43.952Z,101214.41
2022-12-31T23:59:12.215Z,101205.78
